createdAt,value
2019-03-25T00:01:57.532Z,101118.48
2019-03-25T00:05:01.922Z,101122.75
2019-03-25T00:08:06.443Z,101111.80
2019-03-25T00:11:11.006Z,101101.41
2019-03-25T00:14:15.477Z,101088.67
2019-03-25T00:17:19.911Z,101076.42
2019-03-25T00:20:24.302Z,101091.70
2019-03-25T00:23:28.755Z,101078.54
2019-03-25T00:26:33.094Z,101082.06
2019-03-25T00:29:37.454Z,101076.91
2019-03-25T00:32:41.981Z,101076.02
2019-03-25T00:35:46.356Z,101076.47
2019-03-25T00:38:50.787Z,101073.87
2019-03-25T00:41:55.275Z,101060.27
2019-03-25T00:44:59.618Z,101068.19
2019-03-25T00:48:04.091Z,101079.13
2019-03-25T00:51:08.626Z,101069.52
2019-03-25T00:54:12.991Z,101080.48
2019-03-25T00:57:17.392Z,101081.80
2019-03-25T01:00:22.151Z,101073.01
2019-03-25T01:03:26.485Z,101090.13
2019-03-25T01:06:30.908Z,101100.26
2019-03-25T01:09:35.289Z,101102.90
2019-03-25T01:12:39.644Z,101087.14
2019-03-25T01:15:44.112Z,101078.83
2019-03-25T01:18:48.484Z,101067.83
2019-03-25T01:21:53.020Z,101076.14
2019-03-25T01:25:02.269Z,101071.80
2019-03-25T01:28:03.740Z,101071.78
2019-03-25T01:31:08.212Z,101082.75
2019-03-25T01:34:12.577Z,101093.28
2019-03-25T01:37:17.031Z,101110.38
2019-03-25T01:40:21.549Z,101097.70
2019-03-25T01:43:25.958Z,101093.32
2019-03-25T01:46:30.356Z,101077.52
2019-03-25T01:49:34.696Z,101078.41
2019-03-25T01:52:39.076Z,101088.92
2019-03-25T01:55:43.449Z,101082.79
2019-03-25T01:58:47.840Z,101081.45
2019-03-25T02:01:52.210Z,101069.60
2019-03-25T02:04:56.747Z,101071.80
2019-03-25T02:08:01.219Z,101060.84
2019-03-25T02:11:05.723Z,101056.47
2019-03-25T02:14:10.095Z,101051.22
2019-03-25T02:17:14.493Z,101051.64
2019-03-25T02:20:26.346Z,101049.89
2019-03-25T02:23:25.187Z,101045.49
2019-03-25T02:26:29.563Z,101054.27
2019-03-25T02:29:33.946Z,101045.89
2019-03-25T02:32:38.332Z,101047.64
2019-03-25T02:35:42.709Z,101037.13
2019-03-25T02:38:47.115Z,101039.30
2019-03-25T02:41:51.511Z,101035.36
2019-03-25T02:44:55.877Z,101032.26
2019-03-25T02:48:00.357Z,101037.52
2019-03-25T02:51:04.880Z,101030.91
2019-03-25T02:54:09.260Z,101026.59
2019-03-25T02:57:13.645Z,101025.72
2019-03-25T03:00:31.768Z,101024.42
2019-03-25T03:03:36.154Z,101028.31
2019-03-25T03:06:40.555Z,101029.22
2019-03-25T03:09:44.999Z,101022.16
2019-03-25T03:12:49.388Z,101022.20
2019-03-25T03:15:53.754Z,101019.11
2019-03-25T03:18:58.139Z,101016.91
2019-03-25T03:22:02.546Z,101008.66
2019-03-25T03:25:07.200Z,101001.25
2019-03-25T03:28:11.560Z,101009.57
2019-03-25T03:31:15.970Z,101005.17
2019-03-25T03:34:20.356Z,100998.16
2019-03-25T03:37:24.797Z,100997.28
2019-03-25T03:40:29.176Z,100997.71
2019-03-25T03:43:33.633Z,101000.36
2019-03-25T03:46:38.038Z,101006.48
2019-03-25T03:49:42.569Z,100999.50
2019-03-25T03:52:47.040Z,100989.87
2019-03-25T03:55:53.064Z,100991.62
2019-03-25T03:58:58.529Z,100987.70
2019-03-25T04:02:02.902Z,100976.31
2019-03-25T04:05:07.454Z,100980.25
2019-03-25T04:08:11.833Z,100986.37
2019-03-25T04:11:16.292Z,100993.39
2019-03-25T04:14:20.717Z,100995.11
2019-03-25T04:17:25.119Z,100990.28
2019-03-25T04:20:29.646Z,100993.37
2019-03-25T04:23:34.008Z,100991.64
2019-03-25T04:26:38.381Z,100989.02
2019-03-25T04:29:42.741Z,100978.08
2019-03-25T04:32:47.185Z,100975.03
2019-03-25T04:35:51.606Z,100971.52
2019-03-25T04:38:55.971Z,100981.58
2019-03-25T04:42:00.360Z,100973.29
2019-03-25T04:45:05.039Z,100973.26
2019-03-25T04:48:09.388Z,100977.20
2019-03-25T04:51:13.783Z,100980.30
2019-03-25T04:54:18.119Z,100977.22
2019-03-25T04:57:22.510Z,100981.58
2019-03-25T05:00:37.498Z,100978.08
2019-03-25T05:03:41.876Z,100971.53
2019-03-25T05:06:46.223Z,100964.52
2019-03-25T05:09:50.611Z,100963.64
2019-03-25T05:12:54.981Z,100970.63
2019-03-25T05:15:59.341Z,100977.66
2019-03-25T05:19:03.770Z,100972.84
2019-03-25T05:22:08.127Z,100981.58
2019-03-25T05:25:12.493Z,100982.48
2019-03-25T05:28:16.846Z,100982.91
2019-03-25T05:31:21.252Z,100979.41
2019-03-25T05:34:25.581Z,100983.34
2019-03-25T05:37:30.033Z,100978.52
2019-03-25T05:40:35.050Z,100983.36
2019-03-25T05:43:39.424Z,100980.72
2019-03-25T05:46:43.822Z,100978.11
2019-03-25T05:49:48.181Z,100979.41
2019-03-25T05:52:52.548Z,100973.70
2019-03-25T05:55:56.936Z,100987.27
2019-03-25T05:59:01.332Z,100981.61
2019-03-25T06:02:05.841Z,100978.11
2019-03-25T06:05:10.344Z,100977.23
2019-03-25T06:08:14.774Z,100986.41
2019-03-25T06:11:19.188Z,100988.59
2019-03-25T06:14:23.578Z,100998.67
2019-03-25T06:17:27.935Z,101005.23
2019-03-25T06:20:32.308Z,101016.20
2019-03-25T06:23:36.655Z,101017.05
2019-03-25T06:26:40.996Z,101010.03
2019-03-25T06:29:45.377Z,101007.42
2019-03-25T06:32:49.770Z,101008.74
2019-03-25T06:35:54.124Z,101019.23
2019-03-25T06:38:58.472Z,101023.20
2019-03-25T06:42:02.822Z,101026.69
2019-03-25T06:45:08.225Z,101027.15
2019-03-25T06:48:12.583Z,101038.98
2019-03-25T06:51:16.943Z,101035.04
2019-03-25T06:54:21.339Z,101041.59
2019-03-25T06:57:26.107Z,101045.98
2019-03-25T07:00:30.540Z,101047.28
2019-03-25T07:03:34.870Z,101047.73
2019-03-25T07:06:39.258Z,101052.98
2019-03-25T07:09:43.630Z,101056.02
2019-03-25T07:12:48.233Z,101051.66
2019-03-25T07:15:52.996Z,101056.41
2019-03-25T07:19:05.073Z,101059.50
2019-03-25T07:22:09.466Z,101080.98
2019-03-25T07:25:13.983Z,101084.50
2019-03-25T07:28:18.328Z,101084.46
2019-03-25T07:31:22.683Z,101088.37
2019-03-25T07:34:27.025Z,101100.66
2019-03-25T07:37:31.420Z,101108.98
2019-03-25T07:40:35.843Z,101106.80
2019-03-25T07:43:40.216Z,101116.94
2019-03-25T07:46:44.695Z,101115.16
2019-03-25T07:49:49.038Z,101124.84
2019-03-25T07:52:53.495Z,101129.19
2019-03-25T07:55:57.853Z,101140.55
2019-03-25T07:59:02.215Z,101144.05
2019-03-25T08:02:06.573Z,101144.48
2019-03-25T08:05:11.388Z,101149.28
2019-03-25T08:08:15.872Z,101156.29
2019-03-25T08:11:20.298Z,101159.25
2019-03-25T08:14:24.733Z,101160.94
2019-03-25T08:17:30.035Z,101157.38
2019-03-25T08:20:34.406Z,101165.14
2019-03-25T08:23:38.783Z,101166.90
2019-03-25T08:26:43.186Z,101163.70
2019-03-25T08:29:47.530Z,101172.40
2019-03-25T08:32:51.899Z,101172.48
2019-03-25T08:35:56.376Z,101182.09
2019-03-25T08:39:00.727Z,101182.93
2019-03-25T08:42:05.252Z,101183.36
2019-03-25T08:45:10.148Z,101184.25
2019-03-25T08:48:14.512Z,101184.19
2019-03-25T08:51:22.142Z,101188.95
2019-03-25T08:54:26.586Z,101187.07
2019-03-25T08:57:31.026Z,101197.70
2019-03-25T09:00:35.470Z,101202.25
2019-03-25T09:03:39.924Z,101201.61
2019-03-25T09:06:44.290Z,101200.13
2019-03-25T09:09:48.732Z,101209.73
2019-03-25T09:12:53.171Z,101211.38
2019-03-25T09:15:57.637Z,101202.59
2019-03-25T09:19:01.956Z,101206.95
2019-03-25T09:22:06.442Z,101204.87
2019-03-25T09:25:11.352Z,101202.31
2019-03-25T09:28:24.189Z,101217.78
2019-03-25T09:31:22.311Z,101239.43
2019-03-25T09:34:26.762Z,101235.07
2019-03-25T09:37:31.208Z,101251.31
2019-03-25T09:40:35.518Z,101244.77
2019-03-25T09:43:40.002Z,101245.31
2019-03-25T09:46:44.444Z,101253.89
2019-03-25T09:49:48.826Z,101256.96
2019-03-25T09:52:53.211Z,101262.09
2019-03-25T09:55:57.638Z,101261.92
2019-03-25T09:59:02.020Z,101272.59
2019-03-25T10:02:09.236Z,101265.55
2019-03-25T10:05:13.875Z,101271.41
2019-03-25T10:08:18.450Z,101272.62
2019-03-25T10:11:22.888Z,101265.27
2019-03-25T10:14:27.291Z,101262.73
2019-03-25T10:17:31.782Z,101287.09
2019-03-25T10:20:36.165Z,101313.76
2019-03-25T10:23:40.607Z,101323.12
2019-03-25T10:26:45.018Z,101331.60
2019-03-25T10:29:49.375Z,101341.42
2019-03-25T10:32:53.857Z,101339.73
2019-03-25T10:35:58.188Z,101333.16
2019-03-25T10:39:02.691Z,101335.42
2019-03-25T10:42:07.197Z,101340.21
2019-03-25T10:45:12.581Z,101346.73
2019-03-25T10:48:16.937Z,101347.03
2019-03-25T10:51:21.296Z,101344.86
2019-03-25T10:54:25.802Z,101352.58
2019-03-25T10:57:30.241Z,101355.00
2019-03-25T11:00:34.601Z,101362.77
2019-03-25T11:03:39.009Z,101377.30
2019-03-25T11:06:43.579Z,101377.32
2019-03-25T11:09:47.940Z,101371.52
2019-03-25T11:12:52.572Z,101366.36
2019-03-25T11:15:57.395Z,101370.14
2019-03-25T11:19:01.825Z,101371.96
2019-03-25T11:22:06.431Z,101383.42
2019-03-25T11:25:11.967Z,101386.17
2019-03-25T11:28:16.872Z,101385.28
2019-03-25T11:31:21.420Z,101393.30
2019-03-25T11:34:25.966Z,101387.23
2019-03-25T11:37:30.471Z,101402.94
2019-03-25T11:40:34.992Z,101405.69
2019-03-25T11:43:39.721Z,101412.95
2019-03-25T11:46:44.022Z,101421.27
2019-03-25T11:49:48.416Z,101422.86
2019-03-25T11:52:52.802Z,101423.70
2019-03-25T11:55:57.613Z,101435.83
2019-03-25T11:59:03.070Z,101437.16
2019-03-25T12:02:17.321Z,101441.74
2019-03-25T12:05:14.839Z,101444.72
2019-03-25T12:08:19.270Z,101461.47
2019-03-25T12:11:25.686Z,101467.06
2019-03-25T12:14:30.143Z,101472.84
2019-03-25T12:17:35.659Z,101471.75
2019-03-25T12:20:40.304Z,101483.11
2019-03-25T12:23:44.879Z,101487.20
2019-03-25T12:26:49.309Z,101485.64
2019-03-25T12:29:53.894Z,101490.67
2019-03-25T12:33:03.899Z,101495.97
2019-03-25T12:36:04.785Z,101504.86
2019-03-25T12:39:09.637Z,101519.38
2019-03-25T12:42:14.251Z,101526.50
2019-03-25T12:45:18.922Z,101533.61
2019-03-25T12:48:23.666Z,101543.31
2019-03-25T12:51:28.329Z,101547.39
2019-03-25T12:54:33.019Z,101554.77
2019-03-25T12:57:37.663Z,101562.84
2019-03-25T13:00:43.722Z,101575.16
2019-03-25T13:03:48.305Z,101583.31
2019-03-25T13:06:52.848Z,101571.69
2019-03-25T13:09:57.411Z,101583.28
2019-03-25T13:13:01.860Z,101589.82
2019-03-25T13:16:06.805Z,101584.84
2019-03-25T13:19:11.552Z,101599.91
2019-03-25T13:22:16.054Z,101601.66
2019-03-25T13:25:20.448Z,101617.52
2019-03-25T13:28:24.860Z,101612.50
2019-03-25T13:31:29.235Z,101617.19
2019-03-25T13:34:33.811Z,101620.92
2019-03-25T13:37:38.302Z,101620.89
2019-03-25T13:40:42.961Z,101625.25
2019-03-25T13:43:47.553Z,101637.84
2019-03-25T13:46:52.196Z,101646.75
2019-03-25T13:49:56.718Z,101665.05
2019-03-25T13:53:01.635Z,101680.45
2019-03-25T13:56:08.930Z,101675.41
2019-03-25T13:59:13.346Z,101677.27
2019-03-25T14:02:18.010Z,101692.44
2019-03-25T14:05:22.539Z,101709.46
2019-03-25T14:08:26.917Z,101711.37
2019-03-25T14:11:31.266Z,101712.20
2019-03-25T14:14:35.629Z,101721.87
2019-03-25T14:17:40.049Z,101724.67
2019-03-25T14:20:44.526Z,101723.66
2019-03-25T14:23:48.981Z,101751.05
2019-03-25T14:26:53.388Z,101745.31
2019-03-25T14:29:57.840Z,101752.22
2019-03-25T14:33:02.385Z,101762.80
2019-03-25T14:36:06.731Z,101784.30
2019-03-25T14:39:11.097Z,101790.44
2019-03-25T14:42:15.639Z,101793.77
2019-03-25T14:45:26.369Z,101801.62
2019-03-25T14:48:26.484Z,101811.73
2019-03-25T14:51:30.982Z,101810.98
2019-03-25T14:54:35.329Z,101821.23
2019-03-25T14:57:39.669Z,101818.87
2019-03-25T15:00:44.215Z,101831.70
2019-03-25T15:03:48.637Z,101844.61
2019-03-25T15:06:52.964Z,101854.44
2019-03-25T15:09:57.330Z,101864.41
2019-03-25T15:13:01.744Z,101864.81
2019-03-25T15:16:06.101Z,101870.09
2019-03-25T15:19:10.434Z,101876.69
2019-03-25T15:22:14.875Z,101870.44
2019-03-25T15:25:19.236Z,101885.91
2019-03-25T15:28:23.766Z,101891.42
2019-03-25T15:31:28.137Z,101901.18
2019-03-25T15:34:32.490Z,101907.44
2019-03-25T15:37:36.863Z,101914.83
2019-03-25T15:40:41.226Z,101917.89
2019-03-25T15:43:45.569Z,101923.64
2019-03-25T15:46:55.781Z,101930.75
2019-03-25T15:49:56.078Z,101936.92
2019-03-25T15:53:00.501Z,101945.66
2019-03-25T15:56:04.971Z,101945.66
2019-03-25T15:59:09.326Z,101953.66
2019-03-25T16:02:13.688Z,101962.97
2019-03-25T16:05:18.514Z,101960.69
2019-03-25T16:08:22.952Z,101965.05
2019-03-25T16:11:27.324Z,101973.38
2019-03-25T16:14:31.701Z,101979.19
2019-03-25T16:17:36.081Z,101988.48
2019-03-25T16:20:40.499Z,101993.36
2019-03-25T16:23:44.999Z,102004.70
2019-03-25T16:26:49.366Z,102007.23
2019-03-25T16:29:53.703Z,102014.07
2019-03-25T16:32:58.046Z,102019.20
2019-03-25T16:36:02.492Z,102029.20
2019-03-25T16:39:08.024Z,102032.39
2019-03-25T16:42:12.367Z,102052.75
2019-03-25T16:45:16.697Z,102043.86
2019-03-25T16:48:21.030Z,102046.98
2019-03-25T16:51:25.409Z,102049.22
2019-03-25T16:54:29.754Z,102056.77
2019-03-25T16:57:34.092Z,102062.95
2019-03-25T17:00:38.506Z,102067.86
2019-03-25T17:03:42.861Z,102064.77
2019-03-25T17:06:47.199Z,102066.53
2019-03-25T17:09:51.549Z,102073.98
2019-03-25T17:12:55.905Z,102066.48
2019-03-25T17:16:00.253Z,102064.31
2019-03-25T17:19:04.615Z,102074.02
2019-03-25T17:22:08.946Z,102074.84
2019-03-25T17:25:13.576Z,102080.11
2019-03-25T17:28:19.264Z,102082.66
2019-03-25T17:31:23.682Z,102091.47
2019-03-25T17:34:28.044Z,102097.13
2019-03-25T17:37:32.371Z,102099.71
2019-03-25T17:40:37.026Z,102107.16
2019-03-25T17:43:41.386Z,102116.33
2019-03-25T17:46:45.753Z,102113.20
2019-03-25T17:49:50.107Z,102119.73
2019-03-25T17:52:54.484Z,102122.34
2019-03-25T17:55:58.862Z,102124.02
2019-03-25T17:59:03.321Z,102134.98
2019-03-25T18:02:07.852Z,102136.67
2019-03-25T18:05:35.848Z,102139.77
2019-03-25T18:08:40.402Z,102141.91
2019-03-25T18:11:44.836Z,102157.28
2019-03-25T18:14:49.173Z,102165.09
2019-03-25T18:17:53.621Z,102169.88
2019-03-25T18:20:57.989Z,102168.58
2019-03-25T18:24:02.386Z,102169.41
2019-03-25T18:27:06.829Z,102178.58
2019-03-25T18:30:12.805Z,102174.59
2019-03-25T18:33:17.341Z,102184.37
2019-03-25T18:36:21.743Z,102195.81
2019-03-25T18:39:26.185Z,102204.22
2019-03-25T18:42:30.691Z,102207.62
2019-03-25T18:45:35.026Z,102205.56
2019-03-25T18:48:39.548Z,102199.05
2019-03-25T18:51:43.990Z,102212.29
2019-03-25T18:54:48.458Z,102219.63
2019-03-25T18:57:52.923Z,102224.98
2019-03-25T19:00:57.282Z,102223.94
2019-03-25T19:04:01.817Z,102221.45
2019-03-25T19:07:06.216Z,102232.66
2019-03-25T19:10:14.728Z,102232.59
2019-03-25T19:13:19.189Z,102235.11
2019-03-25T19:16:23.549Z,102229.19
2019-03-25T19:19:27.882Z,102231.71
2019-03-25T19:22:32.275Z,102232.70
2019-03-25T19:25:36.618Z,102235.14
2019-03-25T19:28:41.006Z,102239.71
2019-03-25T19:31:45.363Z,102245.86
2019-03-25T19:34:49.844Z,102245.44
2019-03-25T19:37:54.189Z,102251.88
2019-03-25T19:40:58.753Z,102268.09
2019-03-25T19:44:03.145Z,102258.86
2019-03-25T19:47:07.524Z,102271.05
2019-03-25T19:50:12.685Z,102274.42
2019-03-25T19:53:19.315Z,102285.84
2019-03-25T19:56:23.080Z,102281.48
2019-03-25T19:59:27.446Z,102290.66
2019-03-25T20:02:31.837Z,102300.05
2019-03-25T20:05:36.371Z,102302.23
2019-03-25T20:08:40.815Z,102303.09
2019-03-25T20:11:45.119Z,102316.92
2019-03-25T20:14:49.584Z,102327.41
2019-03-25T20:17:53.943Z,102332.88
2019-03-25T20:20:58.356Z,102339.02
2019-03-25T20:24:02.777Z,102347.98
2019-03-25T20:27:07.317Z,102352.09
2019-03-25T20:30:12.555Z,102351.45
2019-03-25T20:33:17.015Z,102351.61
2019-03-25T20:36:21.375Z,102345.40
2019-03-25T20:39:25.714Z,102345.48
2019-03-25T20:42:30.089Z,102341.11
2019-03-25T20:45:34.523Z,102348.60
2019-03-25T20:48:38.889Z,102352.33
2019-03-25T20:51:43.270Z,102348.23
2019-03-25T20:54:47.763Z,102362.83
2019-03-25T20:57:52.115Z,102370.31
2019-03-25T21:00:57.613Z,102368.55
2019-03-25T21:04:01.942Z,102373.63
2019-03-25T21:07:06.264Z,102379.53
2019-03-25T21:10:11.029Z,102382.86
2019-03-25T21:13:15.490Z,102368.19
2019-03-25T21:16:20.035Z,102375.58
2019-03-25T21:19:24.459Z,102368.18
2019-03-25T21:22:28.854Z,102371.68
2019-03-25T21:25:33.187Z,102373.98
2019-03-25T21:28:37.573Z,102375.92
2019-03-25T21:31:44.135Z,102379.22
2019-03-25T21:34:48.533Z,102379.12
2019-03-25T21:37:52.921Z,102367.07
2019-03-25T21:40:57.356Z,102375.70
2019-03-25T21:44:01.795Z,102378.30
2019-03-25T21:47:06.154Z,102385.75
2019-03-25T21:50:10.771Z,102387.13
2019-03-25T21:53:15.145Z,102380.73
2019-03-25T21:56:19.493Z,102381.12
2019-03-25T21:59:23.925Z,102383.30
2019-03-25T22:02:28.260Z,102386.39
2019-03-25T22:05:32.620Z,102384.84
2019-03-25T22:08:36.967Z,102380.33
2019-03-25T22:11:41.361Z,102383.11
2019-03-25T22:14:45.703Z,102376.69
2019-03-25T22:17:50.073Z,102377.79
2019-03-25T22:20:54.428Z,102389.73
2019-03-25T22:23:58.856Z,102388.70
2019-03-25T22:27:03.304Z,102397.11
2019-03-25T22:30:08.434Z,102386.44
2019-03-25T22:33:25.134Z,102392.30
2019-03-25T22:36:18.907Z,102394.98
2019-03-25T22:39:23.331Z,102398.78
2019-03-25T22:42:27.803Z,102391.79
2019-03-25T22:45:33.548Z,102399.28
2019-03-25T22:48:37.911Z,102392.24
2019-03-25T22:51:43.156Z,102391.96
2019-03-25T22:54:47.510Z,102394.88
2019-03-25T22:57:51.843Z,102396.64
2019-03-25T23:00:56.556Z,102385.44
2019-03-25T23:04:00.905Z,102381.55
2019-03-25T23:07:05.420Z,102381.91
2019-03-25T23:10:09.878Z,102378.72
2019-03-25T23:13:14.325Z,102389.20
2019-03-25T23:16:18.692Z,102386.66
2019-03-25T23:19:23.067Z,102394.98
2019-03-25T23:22:27.467Z,102386.29
2019-03-25T23:25:31.838Z,102383.11
2019-03-25T23:28:36.227Z,102382.96
2019-03-25T23:31:40.718Z,102390.30
2019-03-25T23:34:45.091Z,102387.20
2019-03-25T23:37:49.443Z,102386.65
2019-03-25T23:40:53.824Z,102389.48
2019-03-25T23:43:58.191Z,102393.63
2019-03-25T23:47:02.539Z,102390.09
2019-03-25T23:50:07.155Z,102388.25
2019-03-25T23:53:11.533Z,102384.36
2019-03-25T23:56:18.641Z,102384.09
2019-03-25T23:59:21.985Z,102381.06
